sensor_id;sensor_type;location;lat;lon;timestamp;temperature;humidity
37974;DHT22;23796;51.458;7.000;2022-10-16T00:00:40;14.30;99.90
37974;DHT22;23796;51.458;7.000;2022-10-16T00:03:09;14.30;99.90
37974;DHT22;23796;51.458;7.000;2022-10-16T00:05:41;14.30;99.90
37974;DHT22;23796;51.458;7.000;2022-10-16T00:08:11;14.30;99.90
37974;DHT22;23796;51.458;7.000;2022-10-16T00:10:37;14.30;99.90
37974;DHT22;23796;51.458;7.000;2022-10-16T00:13:06;14.30;99.90
37974;DHT22;23796;51.458;7.000;2022-10-16T00:15:36;14.30;99.90
37974;DHT22;23796;51.458;7.000;2022-10-16T00:18:07;14.30;99.90
37974;DHT22;23796;51.458;7.000;2022-10-16T00:20:36;14.30;99.90
37974;DHT22;23796;51.458;7.000;2022-10-16T00:23:03;14.30;99.90
37974;DHT22;23796;51.458;7.000;2022-10-16T00:25:29;14.30;99.90
37974;DHT22;23796;51.458;7.000;2022-10-16T00:27:58;14.20;99.90
37974;DHT22;23796;51.458;7.000;2022-10-16T00:30:24;14.30;99.90
37974;DHT22;23796;51.458;7.000;2022-10-16T00:32:52;14.20;99.90
37974;DHT22;23796;51.458;7.000;2022-10-16T00:35:22;14.20;99.90
37974;DHT22;23796;51.458;7.000;2022-10-16T00:37:50;14.20;99.90
37974;DHT22;23796;51.458;7.000;2022-10-16T00:40:16;14.30;99.90
37974;DHT22;23796;51.458;7.000;2022-10-16T00:42:42;14.20;99.90
37974;DHT22;23796;51.458;7.000;2022-10-16T00:45:10;14.20;99.90
37974;DHT22;23796;51.458;7.000;2022-10-16T00:47:55;14.20;99.90
37974;DHT22;23796;51.458;7.000;2022-10-16T00:50:31;14.20;99.90
37974;DHT22;23796;51.458;7.000;2022-10-16T00:53:03;14.20;99.90
37974;DHT22;23796;51.458;7.000;2022-10-16T00:55:28;14.30;99.90
37974;DHT22;23796;51.458;7.000;2022-10-16T00:57:58;14.20;99.90
37974;DHT22;23796;51.458;7.000;2022-10-16T01:00:27;14.20;99.90
37974;DHT22;23796;51.458;7.000;2022-10-16T01:05:23;14.20;99.90
37974;DHT22;23796;51.458;7.000;2022-10-16T01:07:58;14.20;99.90
37974;DHT22;23796;51.458;7.000;2022-10-16T01:10:39;14.20;99.90
37974;DHT22;23796;51.458;7.000;2022-10-16T01:13:07;14.20;99.90
37974;DHT22;23796;51.458;7.000;2022-10-16T01:20:37;14.10;99.90
37974;DHT22;23796;51.458;7.000;2022-10-16T01:28:46;14.10;99.90
37974;DHT22;23796;51.458;7.000;2022-10-16T01:31:19;14.10;99.90
37974;DHT22;23796;51.458;7.000;2022-10-16T01:33:54;14.10;99.90
37974;DHT22;23796;51.458;7.000;2022-10-16T01:36:27;14.10;99.90
37974;DHT22;23796;51.458;7.000;2022-10-16T01:38:56;14.00;99.90
37974;DHT22;23796;51.458;7.000;2022-10-16T01:41:41;14.00;99.90
37974;DHT22;23796;51.458;7.000;2022-10-16T01:44:10;14.00;99.90
37974;DHT22;23796;51.458;7.000;2022-10-16T01:46:44;14.00;99.90
37974;DHT22;23796;51.458;7.000;2022-10-16T01:49:11;14.00;99.90
37974;DHT22;23796;51.458;7.000;2022-10-16T01:51:40;14.00;99.90
37974;DHT22;23796;51.458;7.000;2022-10-16T01:54:09;14.10;99.90
37974;DHT22;23796;51.458;7.000;2022-10-16T01:56:39;14.20;99.90
37974;DHT22;23796;51.458;7.000;2022-10-16T01:59:14;14.20;99.90
37974;DHT22;23796;51.458;7.000;2022-10-16T02:01:47;14.20;99.90
37974;DHT22;23796;51.458;7.000;2022-10-16T02:06:43;14.20;99.90
37974;DHT22;23796;51.458;7.000;2022-10-16T02:09:08;14.20;99.90
37974;DHT22;23796;51.458;7.000;2022-10-16T02:11:34;14.20;99.90
37974;DHT22;23796;51.458;7.000;2022-10-16T02:14:09;14.20;99.90
37974;DHT22;23796;51.458;7.000;2022-10-16T02:16:41;14.20;99.90
37974;DHT22;23796;51.458;7.000;2022-10-16T02:19:11;14.30;99.90
37974;DHT22;23796;51.458;7.000;2022-10-16T02:22:02;14.30;99.90
37974;DHT22;23796;51.458;7.000;2022-10-16T02:27:17;14.30;99.90
37974;DHT22;23796;51.458;7.000;2022-10-16T02:29:51;14.20;99.90
37974;DHT22;23796;51.458;7.000;2022-10-16T02:32:23;14.10;99.90
37974;DHT22;23796;51.458;7.000;2022-10-16T02:34:51;14.10;99.90
37974;DHT22;23796;51.458;7.000;2022-10-16T02:37:17;14.10;99.90
37974;DHT22;23796;51.458;7.000;2022-10-16T02:39:44;14.10;99.90
37974;DHT22;23796;51.458;7.000;2022-10-16T02:42:13;14.10;99.90
37974;DHT22;23796;51.458;7.000;2022-10-16T02:44:39;14.20;99.90
37974;DHT22;23796;51.458;7.000;2022-10-16T02:47:05;14.20;99.90
37974;DHT22;23796;51.458;7.000;2022-10-16T02:49:31;14.30;99.90
37974;DHT22;23796;51.458;7.000;2022-10-16T02:51:57;14.40;99.90
37974;DHT22;23796;51.458;7.000;2022-10-16T02:54:25;14.40;99.90
37974;DHT22;23796;51.458;7.000;2022-10-16T02:56:52;14.30;99.90
37974;DHT22;23796;51.458;7.000;2022-10-16T02:59:21;14.30;99.90
37974;DHT22;23796;51.458;7.000;2022-10-16T03:01:46;14.40;99.90
37974;DHT22;23796;51.458;7.000;2022-10-16T03:04:12;14.40;99.90
37974;DHT22;23796;51.458;7.000;2022-10-16T03:06:37;14.40;99.90
37974;DHT22;23796;51.458;7.000;2022-10-16T03:09:07;14.40;99.90
37974;DHT22;23796;51.458;7.000;2022-10-16T03:11:33;14.40;99.90
37974;DHT22;23796;51.458;7.000;2022-10-16T03:14:01;14.40;99.90
37974;DHT22;23796;51.458;7.000;2022-10-16T03:16:26;14.40;99.90
37974;DHT22;23796;51.458;7.000;2022-10-16T03:18:52;14.40;99.90
37974;DHT22;23796;51.458;7.000;2022-10-16T03:21:18;14.40;99.90
37974;DHT22;23796;51.458;7.000;2022-10-16T03:23:43;14.40;99.90
37974;DHT22;23796;51.458;7.000;2022-10-16T03:26:09;14.40;99.90
37974;DHT22;23796;51.458;7.000;2022-10-16T03:28:34;14.40;99.90
37974;DHT22;23796;51.458;7.000;2022-10-16T03:31:02;14.40;99.90
37974;DHT22;23796;51.458;7.000;2022-10-16T03:33:30;14.40;99.90
37974;DHT22;23796;51.458;7.000;2022-10-16T03:35:55;14.40;99.90
37974;DHT22;23796;51.458;7.000;2022-10-16T03:38:26;14.30;99.90
37974;DHT22;23796;51.458;7.000;2022-10-16T03:40:54;14.30;99.90
37974;DHT22;23796;51.458;7.000;2022-10-16T03:43:19;14.30;99.90
37974;DHT22;23796;51.458;7.000;2022-10-16T03:45:50;14.20;99.90
37974;DHT22;23796;51.458;7.000;2022-10-16T03:48:21;14.20;99.90
37974;DHT22;23796;51.458;7.000;2022-10-16T03:50:47;14.20;99.90
37974;DHT22;23796;51.458;7.000;2022-10-16T03:53:14;14.10;99.90
37974;DHT22;23796;51.458;7.000;2022-10-16T03:55:44;14.00;99.90
37974;DHT22;23796;51.458;7.000;2022-10-16T03:58:12;14.00;99.90
37974;DHT22;23796;51.458;7.000;2022-10-16T04:00:44;14.00;99.90
37974;DHT22;23796;51.458;7.000;2022-10-16T04:03:10;14.00;99.90
37974;DHT22;23796;51.458;7.000;2022-10-16T04:05:36;13.90;99.90
37974;DHT22;23796;51.458;7.000;2022-10-16T04:08:04;13.90;99.90
37974;DHT22;23796;51.458;7.000;2022-10-16T04:10:30;13.90;99.90
37974;DHT22;23796;51.458;7.000;2022-10-16T04:12:58;14.00;99.90
37974;DHT22;23796;51.458;7.000;2022-10-16T04:15:24;14.00;99.90
37974;DHT22;23796;51.458;7.000;2022-10-16T04:17:50;14.00;99.90
37974;DHT22;23796;51.458;7.000;2022-10-16T04:20:16;14.00;99.90
37974;DHT22;23796;51.458;7.000;2022-10-16T04:22:44;14.00;99.90
37974;DHT22;23796;51.458;7.000;2022-10-16T04:25:10;13.90;99.90
37974;DHT22;23796;51.458;7.000;2022-10-16T04:27:39;13.90;99.90
37974;DHT22;23796;51.458;7.000;2022-10-16T04:30:05;13.90;99.90
37974;DHT22;23796;51.458;7.000;2022-10-16T04:32:31;13.90;99.90
37974;DHT22;23796;51.458;7.000;2022-10-16T04:34:56;13.80;99.90
37974;DHT22;23796;51.458;7.000;2022-10-16T04:37:26;13.80;99.90
37974;DHT22;23796;51.458;7.000;2022-10-16T04:39:52;13.80;99.90
37974;DHT22;23796;51.458;7.000;2022-10-16T04:42:21;13.80;99.90
37974;DHT22;23796;51.458;7.000;2022-10-16T04:44:46;13.70;99.90
37974;DHT22;23796;51.458;7.000;2022-10-16T04:47:15;13.70;99.90
37974;DHT22;23796;51.458;7.000;2022-10-16T04:49:43;13.70;99.90
37974;DHT22;23796;51.458;7.000;2022-10-16T04:52:08;13.60;99.90
37974;DHT22;23796;51.458;7.000;2022-10-16T04:54:35;13.60;99.90
37974;DHT22;23796;51.458;7.000;2022-10-16T04:57:00;13.70;99.90
37974;DHT22;23796;51.458;7.000;2022-10-16T04:59:26;13.70;99.90
37974;DHT22;23796;51.458;7.000;2022-10-16T05:01:54;13.70;99.90
37974;DHT22;23796;51.458;7.000;2022-10-16T05:04:22;13.70;99.90
37974;DHT22;23796;51.458;7.000;2022-10-16T05:06:50;13.70;99.90
37974;DHT22;23796;51.458;7.000;2022-10-16T05:09:16;13.70;99.90
37974;DHT22;23796;51.458;7.000;2022-10-16T05:11:42;13.70;99.90
37974;DHT22;23796;51.458;7.000;2022-10-16T05:14:07;13.70;99.90
37974;DHT22;23796;51.458;7.000;2022-10-16T05:16:35;13.70;99.90
37974;DHT22;23796;51.458;7.000;2022-10-16T05:19:01;13.80;99.90
37974;DHT22;23796;51.458;7.000;2022-10-16T05:21:29;13.80;99.90
37974;DHT22;23796;51.458;7.000;2022-10-16T05:23:57;13.80;99.90
37974;DHT22;23796;51.458;7.000;2022-10-16T05:26:25;13.80;99.90
37974;DHT22;23796;51.458;7.000;2022-10-16T05:28:51;13.80;99.90
37974;DHT22;23796;51.458;7.000;2022-10-16T05:31:18;13.80;99.90
37974;DHT22;23796;51.458;7.000;2022-10-16T05:33:46;13.80;99.90
37974;DHT22;23796;51.458;7.000;2022-10-16T05:36:14;13.80;99.90
37974;DHT22;23796;51.458;7.000;2022-10-16T05:38:40;13.80;99.90
37974;DHT22;23796;51.458;7.000;2022-10-16T05:41:08;13.80;99.90
37974;DHT22;23796;51.458;7.000;2022-10-16T05:43:33;13.80;99.90
37974;DHT22;23796;51.458;7.000;2022-10-16T05:46:02;13.80;99.90
37974;DHT22;23796;51.458;7.000;2022-10-16T05:48:33;13.80;99.90
37974;DHT22;23796;51.458;7.000;2022-10-16T05:51:04;13.90;99.90
37974;DHT22;23796;51.458;7.000;2022-10-16T05:53:32;13.90;99.90
37974;DHT22;23796;51.458;7.000;2022-10-16T05:55:58;13.80;99.90
37974;DHT22;23796;51.458;7.000;2022-10-16T05:58:29;13.90;99.90
37974;DHT22;23796;51.458;7.000;2022-10-16T06:01:00;13.80;99.90
37974;DHT22;23796;51.458;7.000;2022-10-16T06:03:26;13.80;99.90
37974;DHT22;23796;51.458;7.000;2022-10-16T06:05:52;13.70;99.90
37974;DHT22;23796;51.458;7.000;2022-10-16T06:08:20;13.70;99.90
37974;DHT22;23796;51.458;7.000;2022-10-16T06:10:46;13.70;99.90
37974;DHT22;23796;51.458;7.000;2022-10-16T06:13:13;13.70;99.90
37974;DHT22;23796;51.458;7.000;2022-10-16T06:15:40;13.60;99.90
37974;DHT22;23796;51.458;7.000;2022-10-16T06:18:10;13.60;99.90
37974;DHT22;23796;51.458;7.000;2022-10-16T06:20:39;13.60;99.90
37974;DHT22;23796;51.458;7.000;2022-10-16T06:23:04;13.60;99.90
37974;DHT22;23796;51.458;7.000;2022-10-16T06:25:31;13.60;99.90
37974;DHT22;23796;51.458;7.000;2022-10-16T06:27:57;13.70;99.90
37974;DHT22;23796;51.458;7.000;2022-10-16T06:30:25;13.70;99.90
37974;DHT22;23796;51.458;7.000;2022-10-16T06:32:55;13.70;99.90
37974;DHT22;23796;51.458;7.000;2022-10-16T06:35:21;13.80;99.90
37974;DHT22;23796;51.458;7.000;2022-10-16T06:37:47;13.70;99.90
37974;DHT22;23796;51.458;7.000;2022-10-16T06:40:12;13.80;99.90
37974;DHT22;23796;51.458;7.000;2022-10-16T06:42:40;13.80;99.90
37974;DHT22;23796;51.458;7.000;2022-10-16T06:45:06;13.90;99.90
37974;DHT22;23796;51.458;7.000;2022-10-16T06:47:31;13.90;99.90
37974;DHT22;23796;51.458;7.000;2022-10-16T06:49:59;13.90;99.90
37974;DHT22;23796;51.458;7.000;2022-10-16T06:52:27;14.00;99.90
37974;DHT22;23796;51.458;7.000;2022-10-16T06:54:53;13.90;99.90
37974;DHT22;23796;51.458;7.000;2022-10-16T06:57:21;13.80;99.90
37974;DHT22;23796;51.458;7.000;2022-10-16T06:59:46;13.80;99.90
37974;DHT22;23796;51.458;7.000;2022-10-16T07:02:12;13.80;99.90
37974;DHT22;23796;51.458;7.000;2022-10-16T07:04:40;13.80;99.90
37974;DHT22;23796;51.458;7.000;2022-10-16T07:07:08;13.80;99.90
37974;DHT22;23796;51.458;7.000;2022-10-16T07:09:33;13.70;99.90
37974;DHT22;23796;51.458;7.000;2022-10-16T07:12:01;13.70;99.90
37974;DHT22;23796;51.458;7.000;2022-10-16T07:14:27;13.70;99.90
37974;DHT22;23796;51.458;7.000;2022-10-16T07:16:53;13.70;99.90
37974;DHT22;23796;51.458;7.000;2022-10-16T07:19:18;13.70;99.90
37974;DHT22;23796;51.458;7.000;2022-10-16T07:21:44;13.70;99.90
37974;DHT22;23796;51.458;7.000;2022-10-16T07:24:15;13.70;99.90
37974;DHT22;23796;51.458;7.000;2022-10-16T07:26:42;13.70;99.90
37974;DHT22;23796;51.458;7.000;2022-10-16T07:29:17;13.80;99.90
37974;DHT22;23796;51.458;7.000;2022-10-16T07:31:44;13.70;99.90
37974;DHT22;23796;51.458;7.000;2022-10-16T07:34:14;13.70;99.90
37974;DHT22;23796;51.458;7.000;2022-10-16T07:36:40;13.70;99.90
37974;DHT22;23796;51.458;7.000;2022-10-16T07:39:06;13.80;99.90
37974;DHT22;23796;51.458;7.000;2022-10-16T07:41:34;13.80;99.90
37974;DHT22;23796;51.458;7.000;2022-10-16T07:44:02;13.80;99.90
37974;DHT22;23796;51.458;7.000;2022-10-16T07:46:29;13.90;99.90
37974;DHT22;23796;51.458;7.000;2022-10-16T07:48:59;13.90;99.90
37974;DHT22;23796;51.458;7.000;2022-10-16T07:51:26;13.90;99.90
37974;DHT22;23796;51.458;7.000;2022-10-16T07:53:54;14.00;99.90
37974;DHT22;23796;51.458;7.000;2022-10-16T07:56:21;14.00;99.90
37974;DHT22;23796;51.458;7.000;2022-10-16T07:58:47;14.10;99.90
37974;DHT22;23796;51.458;7.000;2022-10-16T08:01:17;14.20;99.90
37974;DHT22;23796;51.458;7.000;2022-10-16T08:03:49;14.30;99.90
37974;DHT22;23796;51.458;7.000;2022-10-16T08:06:16;14.30;99.90
37974;DHT22;23796;51.458;7.000;2022-10-16T08:08:44;14.40;99.90
37974;DHT22;23796;51.458;7.000;2022-10-16T08:11:12;14.40;99.90
37974;DHT22;23796;51.458;7.000;2022-10-16T08:13:40;14.50;99.90
37974;DHT22;23796;51.458;7.000;2022-10-16T08:16:07;14.50;99.90
37974;DHT22;23796;51.458;7.000;2022-10-16T08:18:37;14.60;99.90
37974;DHT22;23796;51.458;7.000;2022-10-16T08:21:04;14.60;99.90
37974;DHT22;23796;51.458;7.000;2022-10-16T08:23:35;14.70;99.90
37974;DHT22;23796;51.458;7.000;2022-10-16T08:26:06;14.70;99.90
37974;DHT22;23796;51.458;7.000;2022-10-16T08:28:32;14.80;99.90
37974;DHT22;23796;51.458;7.000;2022-10-16T08:31:05;14.80;99.90
37974;DHT22;23796;51.458;7.000;2022-10-16T08:33:31;15.00;99.90
37974;DHT22;23796;51.458;7.000;2022-10-16T08:35:57;15.00;99.90
37974;DHT22;23796;51.458;7.000;2022-10-16T08:38:24;15.10;99.90
37974;DHT22;23796;51.458;7.000;2022-10-16T08:41:00;15.10;99.90
37974;DHT22;23796;51.458;7.000;2022-10-16T08:43:43;15.20;99.90
37974;DHT22;23796;51.458;7.000;2022-10-16T08:46:25;15.20;99.90
37974;DHT22;23796;51.458;7.000;2022-10-16T08:48:57;15.30;99.90
37974;DHT22;23796;51.458;7.000;2022-10-16T08:53:56;15.40;99.90
37974;DHT22;23796;51.458;7.000;2022-10-16T08:56:23;15.50;99.90
37974;DHT22;23796;51.458;7.000;2022-10-16T08:58:49;15.50;99.90
37974;DHT22;23796;51.458;7.000;2022-10-16T09:01:17;15.50;99.90
37974;DHT22;23796;51.458;7.000;2022-10-16T09:06:58;15.70;99.90
37974;DHT22;23796;51.458;7.000;2022-10-16T09:12:10;15.90;99.90
37974;DHT22;23796;51.458;7.000;2022-10-16T09:22:36;16.10;99.90
37974;DHT22;23796;51.458;7.000;2022-10-16T09:25:14;16.20;99.90
37974;DHT22;23796;51.458;7.000;2022-10-16T09:27:40;16.10;99.90
37974;DHT22;23796;51.458;7.000;2022-10-16T09:30:16;16.20;99.90
37974;DHT22;23796;51.458;7.000;2022-10-16T09:32:43;16.20;99.90
37974;DHT22;23796;51.458;7.000;2022-10-16T09:35:20;16.20;99.90
37974;DHT22;23796;51.458;7.000;2022-10-16T09:37:49;16.20;99.90
37974;DHT22;23796;51.458;7.000;2022-10-16T09:40:45;16.30;99.90
37974;DHT22;23796;51.458;7.000;2022-10-16T09:43:36;16.30;99.90
37974;DHT22;23796;51.458;7.000;2022-10-16T09:49:03;16.40;99.90
37974;DHT22;23796;51.458;7.000;2022-10-16T09:56:31;16.60;99.90
37974;DHT22;23796;51.458;7.000;2022-10-16T10:01:44;16.60;99.90
37974;DHT22;23796;51.458;7.000;2022-10-16T10:04:11;16.60;99.90
37974;DHT22;23796;51.458;7.000;2022-10-16T10:06:46;16.70;99.90
37974;DHT22;23796;51.458;7.000;2022-10-16T10:12:03;16.80;99.90
37974;DHT22;23796;51.458;7.000;2022-10-16T10:19:46;16.80;99.90
37974;DHT22;23796;51.458;7.000;2022-10-16T10:22:42;16.90;99.90
37974;DHT22;23796;51.458;7.000;2022-10-16T10:33:28;17.50;99.90
37974;DHT22;23796;51.458;7.000;2022-10-16T10:38:56;18.00;99.90
37974;DHT22;23796;51.458;7.000;2022-10-16T10:44:16;18.20;99.90
37974;DHT22;23796;51.458;7.000;2022-10-16T11:01:41;18.60;99.90
37974;DHT22;23796;51.458;7.000;2022-10-16T11:07:09;18.50;99.90
37974;DHT22;23796;51.458;7.000;2022-10-16T11:09:41;18.50;99.90
37974;DHT22;23796;51.458;7.000;2022-10-16T11:12:31;18.70;99.90
37974;DHT22;23796;51.458;7.000;2022-10-16T11:15:11;18.90;99.90
37974;DHT22;23796;51.458;7.000;2022-10-16T11:17:48;19.00;99.90
37974;DHT22;23796;51.458;7.000;2022-10-16T11:22:51;19.50;99.90
37974;DHT22;23796;51.458;7.000;2022-10-16T11:30:33;19.80;99.90
37974;DHT22;23796;51.458;7.000;2022-10-16T11:35:52;19.80;99.90
37974;DHT22;23796;51.458;7.000;2022-10-16T11:40:54;19.90;99.90
37974;DHT22;23796;51.458;7.000;2022-10-16T11:43:46;20.10;99.90
37974;DHT22;23796;51.458;7.000;2022-10-16T11:46:19;20.10;99.90
37974;DHT22;23796;51.458;7.000;2022-10-16T11:51:40;19.80;99.90
37974;DHT22;23796;51.458;7.000;2022-10-16T11:54:32;19.40;99.90
37974;DHT22;23796;51.458;7.000;2022-10-16T11:57:16;19.30;99.90
37974;DHT22;23796;51.458;7.000;2022-10-16T12:02:38;19.40;99.90
37974;DHT22;23796;51.458;7.000;2022-10-16T12:05:33;19.40;99.90
37974;DHT22;23796;51.458;7.000;2022-10-16T12:08:12;19.60;99.90
37974;DHT22;23796;51.458;7.000;2022-10-16T12:10:42;19.70;99.90
37974;DHT22;23796;51.458;7.000;2022-10-16T12:13:30;19.70;99.90
37974;DHT22;23796;51.458;7.000;2022-10-16T12:16:26;19.70;99.90
37974;DHT22;23796;51.458;7.000;2022-10-16T12:19:10;19.60;99.90
37974;DHT22;23796;51.458;7.000;2022-10-16T12:21:36;19.60;99.90
37974;DHT22;23796;51.458;7.000;2022-10-16T12:24:04;19.50;99.90
37974;DHT22;23796;51.458;7.000;2022-10-16T12:26:37;19.60;99.90
37974;DHT22;23796;51.458;7.000;2022-10-16T12:29:59;19.60;99.90
37974;DHT22;23796;51.458;7.000;2022-10-16T12:31:59;19.50;99.90
37974;DHT22;23796;51.458;7.000;2022-10-16T12:37:19;19.20;99.90
37974;DHT22;23796;51.458;7.000;2022-10-16T12:39:49;19.00;99.90
37974;DHT22;23796;51.458;7.000;2022-10-16T12:42:34;19.20;99.90
37974;DHT22;23796;51.458;7.000;2022-10-16T12:45:00;19.40;99.90
37974;DHT22;23796;51.458;7.000;2022-10-16T12:50:01;19.60;99.90
37974;DHT22;23796;51.458;7.000;2022-10-16T12:52:39;19.50;99.90
37974;DHT22;23796;51.458;7.000;2022-10-16T12:55:20;19.40;99.90
37974;DHT22;23796;51.458;7.000;2022-10-16T12:58:08;19.40;99.90
37974;DHT22;23796;51.458;7.000;2022-10-16T13:22:05;19.20;99.90
37974;DHT22;23796;51.458;7.000;2022-10-16T13:27:55;19.40;99.90
37974;DHT22;23796;51.458;7.000;2022-10-16T13:33:07;19.30;99.90
37974;DHT22;23796;51.458;7.000;2022-10-16T13:35:36;19.20;99.90
37974;DHT22;23796;51.458;7.000;2022-10-16T13:38:16;19.20;99.90
37974;DHT22;23796;51.458;7.000;2022-10-16T13:41:04;19.20;99.90
37974;DHT22;23796;51.458;7.000;2022-10-16T13:43:51;19.10;99.90
37974;DHT22;23796;51.458;7.000;2022-10-16T13:46:25;19.20;99.90
37974;DHT22;23796;51.458;7.000;2022-10-16T13:51:23;19.50;99.90
37974;DHT22;23796;51.458;7.000;2022-10-16T13:53:51;19.60;99.90
37974;DHT22;23796;51.458;7.000;2022-10-16T13:56:21;19.70;99.90
37974;DHT22;23796;51.458;7.000;2022-10-16T13:59:22;19.90;99.90
37974;DHT22;23796;51.458;7.000;2022-10-16T14:01:48;19.80;99.90
37974;DHT22;23796;51.458;7.000;2022-10-16T14:04:15;19.70;99.90
37974;DHT22;23796;51.458;7.000;2022-10-16T14:06:43;19.90;99.90
37974;DHT22;23796;51.458;7.000;2022-10-16T14:12:03;20.20;99.90
37974;DHT22;23796;51.458;7.000;2022-10-16T14:14:41;20.00;99.90
37974;DHT22;23796;51.458;7.000;2022-10-16T14:17:14;19.70;99.90
37974;DHT22;23796;51.458;7.000;2022-10-16T14:19:40;19.50;99.90
37974;DHT22;23796;51.458;7.000;2022-10-16T14:22:32;19.40;99.90
37974;DHT22;23796;51.458;7.000;2022-10-16T14:24:58;19.30;99.90
37974;DHT22;23796;51.458;7.000;2022-10-16T14:27:34;19.30;99.90
37974;DHT22;23796;51.458;7.000;2022-10-16T14:30:17;19.30;99.90
37974;DHT22;23796;51.458;7.000;2022-10-16T14:37:57;19.40;99.90
37974;DHT22;23796;51.458;7.000;2022-10-16T14:40:34;19.40;99.90
37974;DHT22;23796;51.458;7.000;2022-10-16T14:43:01;19.50;99.90
37974;DHT22;23796;51.458;7.000;2022-10-16T14:45:33;19.60;99.90
37974;DHT22;23796;51.458;7.000;2022-10-16T14:48:00;19.60;99.90
37974;DHT22;23796;51.458;7.000;2022-10-16T14:50:27;19.50;99.90
37974;DHT22;23796;51.458;7.000;2022-10-16T14:52:53;19.40;99.90
37974;DHT22;23796;51.458;7.000;2022-10-16T14:55:19;19.40;99.90
37974;DHT22;23796;51.458;7.000;2022-10-16T14:57:45;19.40;99.90
37974;DHT22;23796;51.458;7.000;2022-10-16T15:00:20;19.30;99.90
37974;DHT22;23796;51.458;7.000;2022-10-16T15:02:47;19.30;99.90
37974;DHT22;23796;51.458;7.000;2022-10-16T15:05:24;19.30;99.90
37974;DHT22;23796;51.458;7.000;2022-10-16T15:07:54;19.30;99.90
37974;DHT22;23796;51.458;7.000;2022-10-16T15:10:24;19.40;99.90
37974;DHT22;23796;51.458;7.000;2022-10-16T15:12:51;19.40;99.90
37974;DHT22;23796;51.458;7.000;2022-10-16T15:15:45;19.20;99.90
37974;DHT22;23796;51.458;7.000;2022-10-16T15:18:14;19.20;99.90
37974;DHT22;23796;51.458;7.000;2022-10-16T15:20:47;19.20;99.90
37974;DHT22;23796;51.458;7.000;2022-10-16T15:23:15;19.10;99.90
37974;DHT22;23796;51.458;7.000;2022-10-16T15:25:43;19.10;99.90
37974;DHT22;23796;51.458;7.000;2022-10-16T15:28:10;19.00;99.90
37974;DHT22;23796;51.458;7.000;2022-10-16T15:30:36;19.10;99.90
37974;DHT22;23796;51.458;7.000;2022-10-16T15:33:08;19.20;99.90
37974;DHT22;23796;51.458;7.000;2022-10-16T15:35:35;19.20;99.90
37974;DHT22;23796;51.458;7.000;2022-10-16T15:38:03;19.20;99.90
37974;DHT22;23796;51.458;7.000;2022-10-16T15:40:28;19.20;99.90
37974;DHT22;23796;51.458;7.000;2022-10-16T15:42:54;19.20;99.90
37974;DHT22;23796;51.458;7.000;2022-10-16T15:45:20;19.20;99.90
37974;DHT22;23796;51.458;7.000;2022-10-16T15:47:48;19.20;99.90
37974;DHT22;23796;51.458;7.000;2022-10-16T15:50:15;19.10;99.90
37974;DHT22;23796;51.458;7.000;2022-10-16T15:52:44;19.10;99.90
37974;DHT22;23796;51.458;7.000;2022-10-16T15:55:11;19.00;99.90
37974;DHT22;23796;51.458;7.000;2022-10-16T15:57:37;19.00;99.90
37974;DHT22;23796;51.458;7.000;2022-10-16T16:00:09;18.90;99.90
37974;DHT22;23796;51.458;7.000;2022-10-16T16:02:38;18.90;99.90
37974;DHT22;23796;51.458;7.000;2022-10-16T16:05:04;18.80;99.90
37974;DHT22;23796;51.458;7.000;2022-10-16T16:07:35;18.70;99.90
37974;DHT22;23796;51.458;7.000;2022-10-16T16:10:02;18.70;99.90
37974;DHT22;23796;51.458;7.000;2022-10-16T16:12:28;18.70;99.90
37974;DHT22;23796;51.458;7.000;2022-10-16T16:14:56;18.70;99.90
37974;DHT22;23796;51.458;7.000;2022-10-16T16:17:27;18.60;99.90
37974;DHT22;23796;51.458;7.000;2022-10-16T16:19:52;18.60;99.90
37974;DHT22;23796;51.458;7.000;2022-10-16T16:22:20;18.60;99.90
37974;DHT22;23796;51.458;7.000;2022-10-16T16:24:46;18.50;99.90
37974;DHT22;23796;51.458;7.000;2022-10-16T16:27:11;18.40;99.90
37974;DHT22;23796;51.458;7.000;2022-10-16T16:29:39;18.30;99.90
37974;DHT22;23796;51.458;7.000;2022-10-16T16:32:04;18.20;99.90
37974;DHT22;23796;51.458;7.000;2022-10-16T16:34:32;18.10;99.90
37974;DHT22;23796;51.458;7.000;2022-10-16T16:36:58;18.10;99.90
37974;DHT22;23796;51.458;7.000;2022-10-16T16:39:26;18.00;99.90
37974;DHT22;23796;51.458;7.000;2022-10-16T16:41:56;18.00;99.90
37974;DHT22;23796;51.458;7.000;2022-10-16T16:44:23;17.90;99.90
37974;DHT22;23796;51.458;7.000;2022-10-16T16:46:49;17.80;99.90
37974;DHT22;23796;51.458;7.000;2022-10-16T16:49:17;17.80;99.90
37974;DHT22;23796;51.458;7.000;2022-10-16T16:51:43;17.80;99.90
37974;DHT22;23796;51.458;7.000;2022-10-16T16:54:10;17.80;99.90
37974;DHT22;23796;51.458;7.000;2022-10-16T16:56:39;17.70;99.90
37974;DHT22;23796;51.458;7.000;2022-10-16T16:59:11;17.70;99.90
37974;DHT22;23796;51.458;7.000;2022-10-16T17:01:37;17.60;99.90
37974;DHT22;23796;51.458;7.000;2022-10-16T17:04:05;17.70;99.90
37974;DHT22;23796;51.458;7.000;2022-10-16T17:06:31;17.70;99.90
37974;DHT22;23796;51.458;7.000;2022-10-16T17:08:57;17.70;99.90
37974;DHT22;23796;51.458;7.000;2022-10-16T17:11:26;17.60;99.90
37974;DHT22;23796;51.458;7.000;2022-10-16T17:13:54;17.70;99.90
37974;DHT22;23796;51.458;7.000;2022-10-16T17:16:22;17.70;99.90
37974;DHT22;23796;51.458;7.000;2022-10-16T17:18:49;17.70;99.90
37974;DHT22;23796;51.458;7.000;2022-10-16T17:21:14;17.70;99.90
37974;DHT22;23796;51.458;7.000;2022-10-16T17:23:42;17.70;99.90
37974;DHT22;23796;51.458;7.000;2022-10-16T17:26:15;17.70;99.90
37974;DHT22;23796;51.458;7.000;2022-10-16T17:28:41;17.70;99.90
37974;DHT22;23796;51.458;7.000;2022-10-16T17:33:37;17.70;99.90
37974;DHT22;23796;51.458;7.000;2022-10-16T17:36:03;17.70;99.90
37974;DHT22;23796;51.458;7.000;2022-10-16T17:38:29;17.80;99.90
37974;DHT22;23796;51.458;7.000;2022-10-16T17:40:57;17.70;99.90
37974;DHT22;23796;51.458;7.000;2022-10-16T17:43:23;17.70;99.90
37974;DHT22;23796;51.458;7.000;2022-10-16T17:45:48;17.70;99.90
37974;DHT22;23796;51.458;7.000;2022-10-16T17:48:14;17.70;99.90
37974;DHT22;23796;51.458;7.000;2022-10-16T17:50:40;17.70;99.90
37974;DHT22;23796;51.458;7.000;2022-10-16T17:53:06;17.70;99.90
37974;DHT22;23796;51.458;7.000;2022-10-16T17:55:37;17.60;99.90
37974;DHT22;23796;51.458;7.000;2022-10-16T17:58:05;17.60;99.90
37974;DHT22;23796;51.458;7.000;2022-10-16T18:00:32;17.60;99.90
37974;DHT22;23796;51.458;7.000;2022-10-16T18:02:58;17.60;99.90
37974;DHT22;23796;51.458;7.000;2022-10-16T18:05:23;17.60;99.90
37974;DHT22;23796;51.458;7.000;2022-10-16T18:07:51;17.60;99.90
37974;DHT22;23796;51.458;7.000;2022-10-16T18:10:20;17.50;99.90
37974;DHT22;23796;51.458;7.000;2022-10-16T18:12:45;17.60;99.90
37974;DHT22;23796;51.458;7.000;2022-10-16T18:15:11;17.50;99.90